Time;durP1;ratioP1;P1;durP2;ratioP2;P2;SDS_P1;SDS_P2;PMS_P1;PMS_P2;Temp;Humidity;BMP_temperature;BMP_pressure;BME280_temperature;BME280_humidity;BME280_pressure;Samples;Min_cycle;Max_cycle;Signal;HPM_P1;HPM_P2
2022/05/29 00:01:10;;;;;;;0.43;0.40;;;16.90;99.90;;;;;;5074164;28;20582;-69
2022/05/29 00:03:37;;;;;;;2.13;0.60;;;17.10;99.90;;;;;;5074111;28;20249;-69
2022/05/29 00:06:05;;;;;;;0.50;0.40;;;16.90;99.90;;;;;;5073919;28;20186;-70
2022/05/29 00:08:37;;;;;;;1.17;0.60;;;17.00;99.90;;;;;;5074006;28;20178;-72
2022/05/29 00:11:05;;;;;;;2.20;0.57;;;17.20;99.90;;;;;;5073888;28;20179;-66
2022/05/29 00:13:33;;;;;;;0.60;0.60;;;17.40;99.90;;;;;;5073777;28;20677;-69
2022/05/29 00:16:00;;;;;;;1.33;0.60;;;17.40;99.90;;;;;;5073365;28;20184;-70
2022/05/29 00:18:28;;;;;;;1.50;0.67;;;18.00;99.90;;;;;;5074046;28;20645;-68
2022/05/29 00:20:57;;;;;;;0.87;0.50;;;17.50;99.90;;;;;;5073166;28;20548;-68
2022/05/29 00:23:28;;;;;;;2.47;0.80;;;17.80;99.90;;;;;;5073169;28;20720;-68
2022/05/29 00:25:56;;;;;;;0.87;0.47;;;18.20;99.90;;;;;;5069461;28;20208;-69
2022/05/29 00:28:23;;;;;;;4.30;2.40;;;18.40;99.90;;;;;;5071910;28;20178;-69
2022/05/29 00:30:51;;;;;;;1.27;1.00;;;18.10;99.90;;;;;;5071960;28;20233;-69
2022/05/29 00:33:18;;;;;;;0.47;0.47;;;18.00;99.90;;;;;;5072130;28;20188;-68
2022/05/29 00:35:46;;;;;;;1.13;0.50;;;18.10;99.90;;;;;;5072149;28;20188;-69
2022/05/29 00:38:14;;;;;;;1.03;0.50;;;18.20;99.90;;;;;;5071809;28;20181;-69
2022/05/29 00:40:48;;;;;;;1.10;0.40;;;18.50;99.90;;;;;;5071825;28;20521;-70
2022/05/29 00:43:16;;;;;;;1.33;0.53;;;18.80;99.90;;;;;;5071843;28;20225;-70
2022/05/29 00:45:59;;;;;;;0.37;0.33;;;18.30;99.90;;;;;;5071947;28;20193;-70
2022/05/29 00:48:27;;;;;;;1.03;0.40;;;18.40;99.90;;;;;;5072179;28;20178;-70
2022/05/29 00:50:59;;;;;;;0.50;0.40;;;18.20;99.90;;;;;;5071589;28;20191;-69
2022/05/29 00:53:28;;;;;;;0.50;0.50;;;18.50;99.90;;;;;;5065625;28;20188;-69
2022/05/29 00:56:06;;;;;;;0.73;0.40;;;18.60;99.90;;;;;;5071441;28;20223;-69
2022/05/29 00:58:34;;;;;;;0.80;0.40;;;18.10;99.90;;;;;;5071996;28;20193;-69
2022/05/29 01:01:03;;;;;;;1.80;0.50;;;17.80;99.90;;;;;;5070966;28;20660;-69
2022/05/29 01:03:31;;;;;;;1.13;0.40;;;18.30;99.90;;;;;;5071584;28;20212;-70
2022/05/29 01:05:59;;;;;;;0.33;0.33;;;18.20;99.90;;;;;;5071900;28;20198;-69
2022/05/29 01:08:36;;;;;;;0.30;0.30;;;18.10;99.90;;;;;;5069433;28;20998;-68
2022/05/29 01:11:06;;;;;;;0.70;0.50;;;18.60;99.90;;;;;;5071545;28;20222;-69
2022/05/29 01:14:13;;;;;;;1.50;0.40;;;18.50;99.90;;;;;;5071659;28;20176;-68
2022/05/29 01:16:43;;;;;;;1.47;0.53;;;18.60;99.90;;;;;;5055852;28;20226;-69
2022/05/29 01:19:22;;;;;;;1.13;0.60;;;18.20;99.90;;;;;;5071423;28;20191;-69
2022/05/29 01:22:05;;;;;;;2.23;0.30;;;18.30;99.90;;;;;;5071558;28;20238;-68
2022/05/29 01:25:00;;;;;;;0.77;0.50;;;18.60;99.90;;;;;;5063682;28;20253;-70
2022/05/29 01:28:02;;;;;;;1.43;0.60;;;18.60;99.90;;;;;;5071781;28;20202;-69
2022/05/29 01:30:35;;;;;;;0.60;0.60;;;18.80;99.90;;;;;;5071500;28;20180;-68
2022/05/29 01:33:26;;;;;;;0.97;0.80;;;18.80;99.90;;;;;;5071539;28;20188;-68
2022/05/29 01:36:09;;;;;;;3.93;0.90;;;18.80;99.90;;;;;;5071485;28;20709;-68
2022/05/29 01:38:39;;;;;;;0.60;0.47;;;18.80;99.90;;;;;;5071660;28;20225;-71
2022/05/29 01:41:33;;;;;;;1.17;0.40;;;18.60;99.90;;;;;;5070942;28;20547;-69
2022/05/29 01:44:23;;;;;;;2.23;0.83;;;19.00;99.90;;;;;;5071050;28;20241;-68
2022/05/29 01:46:57;;;;;;;2.23;0.60;;;19.00;99.90;;;;;;5051590;28;20189;-70
2022/05/29 01:49:27;;;;;;;1.03;0.50;;;19.40;99.90;;;;;;5060354;28;20552;-69
2022/05/29 01:52:15;;;;;;;0.40;0.40;;;19.00;99.90;;;;;;5071267;28;20176;-69
2022/05/29 01:54:50;;;;;;;1.43;0.63;;;19.00;99.90;;;;;;5069783;28;20191;-70
2022/05/29 01:57:25;;;;;;;0.90;0.60;;;19.10;99.90;;;;;;5071058;28;20183;-71
2022/05/29 01:59:55;;;;;;;1.40;0.90;;;19.30;99.90;;;;;;5049918;28;20287;-69
2022/05/29 02:02:48;;;;;;;0.50;0.50;;;19.60;99.90;;;;;;5070375;28;20179;-67
2022/05/29 02:05:26;;;;;;;0.70;0.57;;;19.10;99.90;;;;;;5066809;28;20307;-69
2022/05/29 02:08:22;;;;;;;1.53;1.23;;;19.20;99.90;;;;;;5069843;28;20668;-68
2022/05/29 02:10:58;;;;;;;2.57;2.07;;;19.20;99.90;;;;;;5066144;28;20376;-70
2022/05/29 02:13:33;;;;;;;2.93;1.70;;;18.90;99.90;;;;;;5070907;28;20172;-70
2022/05/29 02:16:12;;;;;;;2.80;1.67;;;19.00;99.90;;;;;;5070803;28;20175;-69
2022/05/29 02:18:55;;;;;;;1.53;0.93;;;19.20;99.90;;;;;;5070965;28;20195;-70
2022/05/29 02:21:52;;;;;;;0.83;0.53;;;19.00;99.90;;;;;;5073745;28;20186;-71
2022/05/29 02:24:23;;;;;;;0.77;0.60;;;19.20;99.90;;;;;;5071944;28;20241;-69
2022/05/29 02:27:14;;;;;;;0.43;0.43;;;19.20;99.90;;;;;;5074513;28;20249;-69
2022/05/29 02:29:42;;;;;;;1.40;0.77;;;19.50;99.90;;;;;;5074176;28;20188;-68
2022/05/29 02:33:08;;;;;;;3.57;1.03;;;19.80;99.90;;;;;;5074933;28;20187;-69
2022/05/29 02:35:38;;;;;;;0.80;0.60;;;20.10;99.90;;;;;;5052018;28;20193;-69
2022/05/29 02:38:14;;;;;;;1.60;0.50;;;20.10;99.90;;;;;;5073300;28;20196;-68
2022/05/29 02:41:12;;;;;;;1.20;0.40;;;19.90;99.90;;;;;;5073640;28;20181;-68
2022/05/29 02:44:02;;;;;;;1.07;0.40;;;19.90;99.90;;;;;;5073173;28;20299;-69
2022/05/29 02:46:42;;;;;;;1.77;0.30;;;19.60;99.90;;;;;;5072882;28;20184;-68
2022/05/29 02:49:24;;;;;;;4.60;1.60;;;19.80;99.90;;;;;;5074161;28;20229;-69
2022/05/29 02:52:00;;;;;;;1.23;0.73;;;20.40;99.90;;;;;;5073286;28;20276;-69
2022/05/29 02:54:30;;;;;;;1.10;0.80;;;20.50;99.90;;;;;;5074101;28;20176;-69
2022/05/29 02:57:00;;;;;;;3.63;1.30;;;21.30;99.90;;;;;;5073778;28;20613;-68
2022/05/29 02:59:43;;;;;;;2.10;1.83;;;21.30;99.90;;;;;;5073768;28;20199;-69
2022/05/29 03:02:38;;;;;;;6.80;3.67;;;21.00;99.90;;;;;;5072203;28;20225;-69
2022/05/29 03:05:23;;;;;;;4.00;2.93;;;20.10;99.90;;;;;;5073286;28;20291;-69
2022/05/29 03:08:16;;;;;;;2.33;1.57;;;20.30;99.90;;;;;;5074229;28;20172;-69
2022/05/29 03:10:53;;;;;;;5.33;3.47;;;21.10;99.90;;;;;;5075132;28;20255;-70
2022/05/29 03:14:04;;;;;;;3.13;1.90;;;21.10;99.90;;;;;;5091748;28;20182;-69
2022/05/29 03:17:02;;;;;;;2.47;0.70;;;20.70;99.90;;;;;;5069280;28;20226;-69
2022/05/29 03:19:52;;;;;;;1.10;0.80;;;20.20;99.90;;;;;;5084647;28;20210;-72
2022/05/29 03:22:48;;;;;;;1.13;0.70;;;20.40;99.90;;;;;;5077959;28;20260;-71
2022/05/29 03:25:35;;;;;;;0.80;0.40;;;20.30;99.90;;;;;;5068654;28;20215;-71
2022/05/29 03:28:07;;;;;;;0.47;0.47;;;20.70;99.90;;;;;;5069713;28;20203;-70
2022/05/29 03:30:39;;;;;;;1.63;0.77;;;20.00;99.90;;;;;;5072986;28;20171;-69
2022/05/29 03:33:12;;;;;;;0.50;0.50;;;20.40;99.90;;;;;;5072422;28;20183;-69
2022/05/29 03:35:54;;;;;;;1.13;0.60;;;19.80;99.90;;;;;;5078508;28;20732;-68
2022/05/29 03:38:22;;;;;;;1.47;0.70;;;19.70;99.90;;;;;;5073730;28;20179;-69
2022/05/29 03:40:51;;;;;;;1.80;0.87;;;20.00;99.90;;;;;;5073440;28;20841;-70
2022/05/29 03:43:18;;;;;;;2.90;1.20;;;19.90;99.90;;;;;;5073610;28;20195;-69
2022/05/29 03:45:45;;;;;;;7.00;4.10;;;20.30;99.90;;;;;;5073344;28;20184;-70
2022/05/29 03:48:13;;;;;;;6.03;2.77;;;20.60;99.90;;;;;;5073444;28;20205;-70
2022/05/29 03:50:40;;;;;;;3.60;1.97;;;20.20;99.90;;;;;;5073486;28;20174;-69
2022/05/29 03:53:08;;;;;;;2.73;1.20;;;20.30;99.90;;;;;;5073189;28;20209;-69
2022/05/29 03:55:35;;;;;;;0.83;0.70;;;20.30;99.90;;;;;;5073229;28;20183;-69
2022/05/29 03:58:02;;;;;;;1.13;0.90;;;20.00;99.90;;;;;;5073096;28;20217;-69
2022/05/29 04:00:29;;;;;;;0.43;0.43;;;20.20;99.90;;;;;;5073664;28;20176;-69
2022/05/29 04:02:57;;;;;;;0.40;0.40;;;20.00;99.90;;;;;;5071442;28;20168;-69
2022/05/29 04:05:25;;;;;;;0.83;0.50;;;19.60;99.90;;;;;;5072497;28;20625;-69
2022/05/29 04:13:33;;;;;;;0.60;0.30;;;19.70;99.90;;;;;;5072710;28;20234;-70
2022/05/29 04:16:00;;;;;;;0.50;0.50;;;19.80;99.90;;;;;;5072789;28;20649;-71
2022/05/29 04:18:28;;;;;;;0.43;0.37;;;19.90;99.90;;;;;;5071402;28;20319;-69
2022/05/29 04:20:55;;;;;;;0.80;0.70;;;19.80;99.90;;;;;;5072877;28;20734;-69
2022/05/29 04:23:22;;;;;;;1.03;0.60;;;19.60;99.90;;;;;;5072458;28;20172;-69
2022/05/29 04:25:50;;;;;;;1.60;0.90;;;20.00;99.90;;;;;;5070630;28;20180;-68
2022/05/29 04:28:18;;;;;;;1.70;0.60;;;19.80;99.90;;;;;;5072328;28;20273;-70
2022/05/29 04:30:45;;;;;;;1.37;0.60;;;19.50;99.90;;;;;;5072367;28;20598;-69
2022/05/29 04:33:13;;;;;;;0.60;0.50;;;19.50;99.90;;;;;;5072475;28;20179;-68
2022/05/29 04:35:48;;;;;;;0.83;0.37;;;19.30;99.90;;;;;;5071732;28;20249;-68
2022/05/29 04:38:16;;;;;;;1.03;0.30;;;19.40;99.90;;;;;;5072454;28;20183;-68
2022/05/29 04:40:44;;;;;;;0.30;0.30;;;19.70;99.90;;;;;;5072092;28;20216;-69
2022/05/29 04:43:13;;;;;;;0.53;0.40;;;19.60;99.90;;;;;;5071960;28;20177;-69
2022/05/29 04:45:45;;;;;;;1.70;0.40;;;19.40;99.90;;;;;;5072055;28;20180;-69
2022/05/29 04:48:16;;;;;;;0.40;0.40;;;19.40;99.90;;;;;;5052317;28;20167;-69
2022/05/29 04:50:43;;;;;;;0.53;0.50;;;19.40;99.90;;;;;;5052308;28;20187;-70
2022/05/29 04:53:11;;;;;;;1.40;0.40;;;19.50;99.90;;;;;;5050769;28;20179;-70
2022/05/29 04:55:42;;;;;;;1.13;0.50;;;19.70;99.90;;;;;;5064788;28;20184;-72
2022/05/29 04:58:10;;;;;;;0.77;0.43;;;19.40;99.90;;;;;;5071505;28;20271;-71
2022/05/29 05:00:37;;;;;;;0.67;0.50;;;19.20;99.90;;;;;;5073087;28;20168;-70
2022/05/29 05:03:05;;;;;;;0.70;0.60;;;19.20;99.90;;;;;;5073384;28;20179;-71
2022/05/29 05:05:32;;;;;;;0.50;0.50;;;19.40;99.90;;;;;;5072681;28;20302;-71
2022/05/29 05:07:59;;;;;;;0.60;0.50;;;19.00;99.90;;;;;;5072519;28;20177;-71
2022/05/29 05:10:27;;;;;;;0.80;0.53;;;18.50;99.90;;;;;;5072821;28;20187;-71
2022/05/29 05:12:54;;;;;;;0.33;0.33;;;18.30;99.90;;;;;;5073056;28;20704;-70
2022/05/29 05:15:22;;;;;;;1.17;0.40;;;18.50;99.90;;;;;;5072292;28;20180;-70
2022/05/29 05:17:49;;;;;;;1.27;0.60;;;18.60;99.90;;;;;;5072914;28;20277;-70
2022/05/29 05:20:17;;;;;;;0.77;0.63;;;18.30;99.90;;;;;;5072976;28;20180;-69
2022/05/29 05:22:44;;;;;;;0.50;0.50;;;18.10;99.90;;;;;;5073017;28;20261;-70
2022/05/29 05:25:12;;;;;;;0.70;0.50;;;18.20;99.90;;;;;;5071009;28;20211;-70
2022/05/29 05:27:39;;;;;;;1.13;0.63;;;17.90;99.90;;;;;;5072656;28;20164;-70
2022/05/29 05:30:07;;;;;;;1.77;0.63;;;17.60;99.90;;;;;;5072667;28;20199;-71
2022/05/29 05:32:35;;;;;;;0.50;0.50;;;17.20;99.90;;;;;;5070782;28;20210;-71
2022/05/29 05:35:04;;;;;;;0.60;0.60;;;16.90;99.90;;;;;;5071874;28;20233;-70
2022/05/29 05:37:34;;;;;;;0.90;0.70;;;16.70;99.90;;;;;;5071944;28;20194;-69
2022/05/29 05:40:04;;;;;;;2.27;1.77;;;16.60;99.90;;;;;;5072264;28;20215;-70
2022/05/29 05:42:31;;;;;;;1.00;0.70;;;16.50;99.90;;;;;;5070845;28;20756;-70
2022/05/29 05:44:59;;;;;;;0.87;0.67;;;16.40;99.90;;;;;;5049493;28;20222;-69
2022/05/29 05:47:26;;;;;;;1.33;0.77;;;16.30;99.90;;;;;;5070626;28;20263;-68
2022/05/29 05:49:54;;;;;;;1.07;0.63;;;16.20;99.90;;;;;;5071247;28;20175;-68
2022/05/29 05:52:21;;;;;;;0.97;0.80;;;16.20;99.90;;;;;;5070293;28;20270;-68
2022/05/29 05:54:48;;;;;;;1.37;0.93;;;16.10;99.90;;;;;;5073824;28;20274;-69
2022/05/29 05:57:19;;;;;;;6.10;5.50;;;16.10;99.90;;;;;;5075026;28;20212;-69
2022/05/29 05:59:46;;;;;;;1.43;1.10;;;16.10;99.90;;;;;;5075347;28;20183;-69
2022/05/29 06:02:14;;;;;;;1.30;1.20;;;16.00;99.90;;;;;;5075395;28;20188;-72
2022/05/29 06:04:43;;;;;;;4.03;0.90;;;15.90;99.90;;;;;;5073881;28;20211;-70
2022/05/29 06:07:11;;;;;;;2.10;1.90;;;16.00;99.90;;;;;;5075175;28;20183;-69
2022/05/29 06:09:38;;;;;;;0.93;0.70;;;15.90;99.90;;;;;;5075359;28;20191;-70
2022/05/29 06:12:07;;;;;;;2.37;2.03;;;15.80;99.90;;;;;;5074786;28;20550;-69
2022/05/29 06:14:35;;;;;;;1.00;0.90;;;15.70;99.90;;;;;;5074454;28;20180;-69
2022/05/29 06:17:04;;;;;;;1.17;0.70;;;15.60;99.90;;;;;;5073197;28;20223;-70
2022/05/29 06:19:32;;;;;;;4.23;1.13;;;15.60;99.90;;;;;;5074976;28;20183;-69
2022/05/29 06:22:00;;;;;;;3.60;1.80;;;15.60;99.90;;;;;;5074943;28;20537;-69
2022/05/29 06:24:27;;;;;;;3.10;1.63;;;15.50;99.90;;;;;;5073499;28;20248;-69
2022/05/29 06:26:59;;;;;;;14.83;9.50;;;15.40;99.90;;;;;;5074408;28;20718;-69
2022/05/29 06:29:27;;;;;;;9.00;4.13;;;15.40;99.90;;;;;;5074361;28;20183;-69
2022/05/29 06:31:59;;;;;;;3.70;2.33;;;15.30;99.90;;;;;;5074439;28;20572;-70
2022/05/29 06:34:26;;;;;;;10.27;6.57;;;15.20;99.90;;;;;;5074663;28;20194;-70
2022/05/29 06:36:54;;;;;;;5.43;3.30;;;15.20;99.90;;;;;;5074130;28;20183;-69
2022/05/29 06:39:22;;;;;;;10.47;6.47;;;15.20;99.90;;;;;;5074629;28;20182;-69
2022/05/29 06:41:49;;;;;;;1.57;1.40;;;15.10;99.90;;;;;;5074373;28;20180;-70
2022/05/29 06:44:17;;;;;;;4.40;2.47;;;15.00;99.90;;;;;;5074485;28;20228;-70
2022/05/29 06:46:44;;;;;;;8.93;5.37;;;14.90;99.90;;;;;;5074125;28;20247;-70
2022/05/29 06:49:12;;;;;;;17.30;11.40;;;14.80;99.90;;;;;;5074303;28;20184;-69
2022/05/29 06:51:39;;;;;;;23.77;13.83;;;14.70;99.90;;;;;;5074432;28;20179;-70
2022/05/29 06:54:07;;;;;;;4.40;3.30;;;14.70;99.90;;;;;;5073729;28;20266;-70
2022/05/29 06:56:34;;;;;;;4.10;2.43;;;14.60;99.90;;;;;;5073805;28;20210;-70
2022/05/29 06:59:05;;;;;;;5.50;3.43;;;14.50;99.90;;;;;;5074321;28;20187;-70
2022/05/29 07:07:15;;;;;;;3.13;1.20;;;14.30;99.90;;;;;;5073563;28;20674;-68
2022/05/29 07:09:42;;;;;;;1.77;1.30;;;14.30;99.90;;;;;;5074032;28;20183;-69
2022/05/29 07:12:15;;;;;;;1.70;1.23;;;14.20;99.90;;;;;;5074251;28;20191;-69
2022/05/29 07:15:06;;;;;;;2.53;1.10;;;14.10;99.90;;;;;;5073947;28;20186;-69
2022/05/29 07:17:38;;;;;;;6.00;1.77;;;14.10;99.90;;;;;;5073566;28;20238;-70
2022/05/29 07:20:06;;;;;;;2.70;1.30;;;14.00;99.90;;;;;;5073753;28;20195;-70
2022/05/29 07:22:34;;;;;;;1.70;1.23;;;13.90;99.90;;;;;;5073466;28;20206;-70
2022/05/29 07:25:05;;;;;;;2.83;1.47;;;13.80;99.90;;;;;;5072901;28;20234;-69
2022/05/29 07:27:32;;;;;;;2.63;1.17;;;13.70;99.90;;;;;;5073613;28;20191;-69
2022/05/29 07:30:00;;;;;;;2.70;1.73;;;13.70;99.90;;;;;;5071863;28;20186;-69
2022/05/29 07:32:27;;;;;;;4.43;2.60;;;13.60;99.90;;;;;;5053653;28;20240;-70
2022/05/29 07:34:55;;;;;;;3.70;2.43;;;13.60;99.90;;;;;;5061438;28;20182;-69
2022/05/29 07:37:22;;;;;;;2.80;1.80;;;13.60;99.90;;;;;;5073532;28;20763;-69
2022/05/29 07:39:51;;;;;;;2.97;2.00;;;13.50;99.90;;;;;;5073120;28;20641;-69
2022/05/29 07:45:08;;;;;;;1.60;1.50;;;13.50;99.90;;;;;;5073396;28;20249;-70
2022/05/29 07:47:42;;;;;;;2.23;1.43;;;13.30;99.90;;;;;;5073818;28;20401;-70
2022/05/29 07:50:13;;;;;;;4.33;1.47;;;13.30;99.90;;;;;;5073256;28;20213;-70
2022/05/29 07:52:41;;;;;;;5.00;1.40;;;13.20;99.90;;;;;;5073426;28;20179;-68
2022/05/29 07:55:09;;;;;;;5.83;1.53;;;13.20;99.90;;;;;;5073070;28;20224;-69
2022/05/29 07:57:36;;;;;;;3.23;1.87;;;13.00;99.90;;;;;;5073278;28;20177;-69
2022/05/29 08:00:10;;;;;;;4.20;1.73;;;12.90;99.90;;;;;;5073308;28;20182;-69
2022/05/29 08:02:37;;;;;;;2.83;2.03;;;12.90;99.90;;;;;;5073151;28;20215;-70
2022/05/29 08:05:09;;;;;;;3.10;2.10;;;12.80;99.90;;;;;;5072822;28;20210;-70
2022/05/29 08:07:36;;;;;;;2.50;2.00;;;12.70;99.90;;;;;;5073078;28;20262;-69
2022/05/29 08:10:04;;;;;;;5.87;3.03;;;12.60;99.90;;;;;;5073055;28;20181;-69
2022/05/29 08:12:31;;;;;;;2.00;1.67;;;12.60;99.90;;;;;;5071576;28;20282;-69
2022/05/29 08:14:59;;;;;;;3.27;2.10;;;12.50;99.90;;;;;;5072746;28;20185;-69
2022/05/29 08:17:26;;;;;;;1.73;1.20;;;12.50;99.90;;;;;;5072192;28;20360;-70
2022/05/29 08:19:54;;;;;;;3.47;1.57;;;12.50;99.90;;;;;;5072957;28;20188;-69
2022/05/29 08:22:21;;;;;;;1.50;1.10;;;12.40;99.90;;;;;;5072879;28;20280;-69
2022/05/29 08:33:14;;;;;;;14.13;9.83;;;12.10;99.90;;;;;;5072825;28;20238;-69
2022/05/29 08:36:03;;;;;;;19.60;11.57;;;11.90;99.90;;;;;;5072177;28;20234;-68
2022/05/29 08:38:34;;;;;;;19.30;12.13;;;12.00;99.90;;;;;;5070531;28;20554;-68
2022/05/29 08:41:08;;;;;;;11.40;8.30;;;11.90;99.90;;;;;;5070501;28;20178;-68
2022/05/29 08:43:56;;;;;;;6.73;5.27;;;11.90;99.90;;;;;;5069171;28;20240;-69
2022/05/29 08:46:31;;;;;;;8.80;4.57;;;11.80;99.90;;;;;;5071773;28;20186;-69
2022/05/29 08:48:58;;;;;;;5.93;3.50;;;11.60;99.90;;;;;;5073180;28;20595;-69
2022/05/29 08:51:36;;;;;;;4.43;3.10;;;11.60;99.90;;;;;;5083872;28;20243;-71
2022/05/29 08:54:46;;;;;;;3.43;2.47;;;11.50;99.90;;;;;;5072714;28;20197;-70
2022/05/29 08:57:49;;;;;;;4.97;2.57;;;11.40;99.90;;;;;;5050847;28;20557;-68
2022/05/29 09:00:30;;;;;;;5.33;2.90;;;11.20;99.90;;;;;;5073543;28;20510;-68
2022/05/29 09:03:31;;;;;;;8.53;3.03;;;11.00;99.90;;;;;;5073011;28;20183;-69
2022/05/29 09:06:06;;;;;;;4.80;3.03;;;10.80;99.90;;;;;;5071452;28;20691;-70
2022/05/29 09:09:08;;;;;;;5.70;3.43;;;10.70;99.90;;;;;;5071574;28;20173;-70
2022/05/29 09:11:54;;;;;;;5.53;3.80;;;10.50;99.90;;;;;;5071768;28;20590;-71
2022/05/29 09:14:43;;;;;;;6.10;4.20;;;10.40;99.90;;;;;;5072950;28;20720;-69
2022/05/29 09:17:17;;;;;;;5.67;3.80;;;10.20;99.90;;;;;;5072806;28;20220;-69
2022/05/29 09:19:52;;;;;;;5.80;4.10;;;10.10;99.90;;;;;;5072979;28;20199;-71
2022/05/29 09:22:30;;;;;;;6.33;3.87;;;10.00;99.90;;;;;;5072948;28;20641;-69
2022/05/29 09:25:09;;;;;;;5.67;3.60;;;10.00;99.90;;;;;;5072979;28;20216;-70
2022/05/29 09:27:43;;;;;;;6.80;4.00;;;9.90;99.90;;;;;;5073125;28;20528;-70
2022/05/29 09:30:10;;;;;;;6.93;3.60;;;9.80;99.90;;;;;;5072771;28;20183;-69
2022/05/29 09:32:53;;;;;;;5.87;3.40;;;9.70;99.90;;;;;;5072110;28;20268;-70
2022/05/29 09:35:37;;;;;;;5.70;3.80;;;9.70;99.90;;;;;;5072008;28;20280;-69
2022/05/29 09:38:25;;;;;;;4.53;3.10;;;9.60;99.90;;;;;;5069716;28;20176;-69
2022/05/29 09:41:11;;;;;;;4.33;2.93;;;9.60;99.90;;;;;;5075122;28;20244;-69
2022/05/29 09:43:38;;;;;;;3.53;2.57;;;9.50;99.90;;;;;;5072606;28;20173;-69
2022/05/29 09:46:21;;;;;;;3.03;2.40;;;9.40;99.90;;;;;;5072527;28;20195;-69
2022/05/29 09:52:04;;;;;;;3.10;2.60;;;9.30;99.90;;;;;;5072163;28;20190;-71
2022/05/29 09:54:44;;;;;;;3.83;2.63;;;9.20;99.90;;;;;;5071261;28;20191;-70
2022/05/29 09:57:11;;;;;;;3.77;2.43;;;9.20;99.90;;;;;;5071360;28;20181;-71
2022/05/29 09:59:43;;;;;;;3.30;2.47;;;9.20;99.90;;;;;;5071370;28;20184;-70
2022/05/29 10:02:38;;;;;;;6.30;3.20;;;9.10;99.90;;;;;;5071569;28;20185;-70
2022/05/29 10:05:26;;;;;;;6.93;3.53;;;9.10;99.90;;;;;;5072540;28;20216;-70
2022/05/29 10:07:59;;;;;;;7.23;2.97;;;9.00;99.90;;;;;;5072870;28;20172;-69
2022/05/29 10:10:26;;;;;;;4.47;3.30;;;8.90;99.90;;;;;;5072508;28;20273;-70
2022/05/29 10:12:57;;;;;;;8.10;3.27;;;8.90;99.90;;;;;;5072600;28;20651;-70
2022/05/29 10:15:27;;;;;;;4.90;3.30;;;8.80;99.90;;;;;;5072736;28;20181;-70
2022/05/29 10:17:58;;;;;;;3.93;2.87;;;8.80;99.90;;;;;;5072281;28;20694;-69
2022/05/29 10:20:43;;;;;;;6.10;3.20;;;8.80;99.90;;;;;;5072640;28;20268;-69
2022/05/29 10:23:31;;;;;;;8.03;4.00;;;8.60;99.90;;;;;;5072178;28;20647;-70
2022/05/29 10:26:13;;;;;;;7.73;4.40;;;8.60;99.90;;;;;;5069980;28;20543;-70
2022/05/29 10:28:42;;;;;;;13.93;4.50;;;8.60;99.90;;;;;;5072060;28;20665;-68
2022/05/29 10:31:36;;;;;;;9.40;5.20;;;8.60;99.90;;;;;;5071121;28;20667;-70
2022/05/29 10:34:13;;;;;;;11.57;6.10;;;8.50;99.90;;;;;;5065852;28;20207;-70
2022/05/29 10:36:41;;;;;;;10.40;6.73;;;8.50;99.90;;;;;;5071876;28;20182;-69
2022/05/29 10:39:31;;;;;;;10.23;7.33;;;8.50;99.90;;;;;;5071175;28;20199;-70
2022/05/29 10:42:02;;;;;;;11.07;8.23;;;8.40;99.90;;;;;;5075535;28;20651;-69
2022/05/29 10:44:44;;;;;;;13.87;8.20;;;8.40;99.90;;;;;;5075096;28;20306;-69
2022/05/29 10:47:27;;;;;;;13.63;9.77;;;8.30;99.90;;;;;;5068186;28;20184;-69
2022/05/29 10:50:05;;;;;;;16.60;10.97;;;8.30;99.90;;;;;;5075300;28;20223;-70
2022/05/29 10:52:57;;;;;;;17.00;10.93;;;8.40;99.90;;;;;;5074718;28;20183;-69
2022/05/29 10:55:39;;;;;;;16.57;11.53;;;8.40;99.90;;;;;;5075717;28;20215;-69
2022/05/29 10:58:18;;;;;;;16.70;11.93;;;8.30;99.90;;;;;;5073320;28;20180;-69
2022/05/29 11:01:03;;;;;;;20.27;12.67;;;8.30;99.90;;;;;;5075034;28;20219;-69
2022/05/29 11:04:11;;;;;;;16.53;11.30;;;8.20;99.90;;;;;;5075036;28;20183;-69
2022/05/29 11:07:07;;;;;;;18.30;12.80;;;8.10;99.90;;;;;;5065441;28;20195;-69
2022/05/29 11:10:02;;;;;;;17.20;10.73;;;8.10;99.90;;;;;;5074194;28;20190;-70
2022/05/29 11:12:45;;;;;;;16.07;9.83;;;8.10;99.90;;;;;;5074196;28;20664;-70
2022/05/29 11:15:36;;;;;;;11.90;8.27;;;8.10;99.90;;;;;;5074047;28;20180;-70
2022/05/29 11:18:24;;;;;;;13.10;8.33;;;8.20;99.90;;;;;;5072421;28;20231;-70
2022/05/29 11:21:28;;;;;;;8.23;5.00;;;8.30;99.90;;;;;;5070439;28;20225;-70
2022/05/29 11:24:04;;;;;;;5.77;4.40;;;8.40;99.90;;;;;;5074390;28;20204;-67
2022/05/29 11:26:49;;;;;;;6.13;4.20;;;8.50;99.90;;;;;;5075044;28;20197;-68
2022/05/29 11:29:49;;;;;;;4.50;2.20;;;8.70;99.90;;;;;;5074789;28;20215;-68
2022/05/29 11:32:23;;;;;;;1.63;1.53;;;9.00;99.90;;;;;;5074038;28;20212;-69
2022/05/29 11:34:53;;;;;;;1.23;1.13;;;9.30;99.90;;;;;;5074638;28;20183;-69
2022/05/29 11:38:05;;;;;;;2.67;1.33;;;9.40;99.90;;;;;;5074762;28;20176;-68
2022/05/29 11:40:43;;;;;;;1.70;1.60;;;9.60;99.90;;;;;;5069447;28;20190;-69
2022/05/29 11:43:24;;;;;;;1.50;1.40;;;9.70;99.90;;;;;;5074995;28;20183;-70
2022/05/29 11:51:51;;;;;;;2.27;1.27;;;10.00;99.90;;;;;;5074053;28;20672;-70
2022/05/29 11:54:27;;;;;;;3.60;1.30;;;10.10;99.90;;;;;;5074773;28;20169;-70
2022/05/29 11:57:20;;;;;;;2.43;1.03;;;10.00;99.90;;;;;;5074318;28;20172;-70
2022/05/29 12:00:12;;;;;;;0.97;0.93;;;9.90;99.90;;;;;;5068597;28;20245;-69
2022/05/29 12:02:58;;;;;;;1.10;1.00;;;9.80;99.90;;;;;;5054615;28;20213;-69
2022/05/29 12:05:30;;;;;;;0.87;0.87;;;9.80;99.90;;;;;;5065863;28;20214;-70
2022/05/29 12:08:14;;;;;;;2.17;0.90;;;9.80;99.90;;;;;;5071205;28;20891;-69
2022/05/29 12:10:54;;;;;;;4.00;1.10;;;9.90;99.90;;;;;;5073399;28;20176;-69
2022/05/29 12:13:26;;;;;;;1.13;1.03;;;10.00;99.90;;;;;;5067074;28;20181;-68
2022/05/29 12:16:03;;;;;;;1.30;1.20;;;10.00;99.90;;;;;;5073766;28;20178;-69
2022/05/29 12:18:49;;;;;;;1.83;1.00;;;10.20;99.90;;;;;;5073818;28;20231;-69
2022/05/29 12:21:29;;;;;;;0.93;0.90;;;10.30;99.90;;;;;;5073587;28;20188;-69
2022/05/29 12:24:00;;;;;;;1.23;1.00;;;10.30;99.90;;;;;;5073568;28;20201;-69
2022/05/29 12:26:38;;;;;;;1.30;1.10;;;10.30;99.90;;;;;;5073644;28;20176;-70
2022/05/29 12:29:26;;;;;;;1.83;1.13;;;10.20;99.90;;;;;;5073204;28;20180;-69
2022/05/29 12:32:05;;;;;;;0.90;0.90;;;9.90;99.90;;;;;;5061561;28;20211;-69
2022/05/29 12:34:53;;;;;;;4.07;1.27;;;9.60;99.90;;;;;;5073573;28;20230;-70
2022/05/29 12:37:39;;;;;;;1.10;0.83;;;9.30;99.90;;;;;;5071929;28;20189;-70
2022/05/29 12:40:16;;;;;;;1.47;1.00;;;9.20;99.90;;;;;;5073475;28;20199;-69
2022/05/29 12:42:50;;;;;;;1.10;1.00;;;9.00;99.90;;;;;;5073974;28;20172;-69
2022/05/29 12:45:21;;;;;;;1.27;1.00;;;8.90;99.90;;;;;;5072600;28;20354;-71
2022/05/29 12:47:54;;;;;;;1.20;1.10;;;8.80;99.90;;;;;;5073280;28;20172;-69
2022/05/29 12:50:21;;;;;;;3.00;1.27;;;8.70;99.90;;;;;;5073231;28;20181;-68
2022/05/29 12:53:10;;;;;;;3.93;1.40;;;8.60;99.90;;;;;;5073239;28;20207;-69
2022/05/29 12:56:12;;;;;;;1.83;1.40;;;8.50;99.90;;;;;;5071687;28;20659;-69
2022/05/29 12:59:14;;;;;;;4.07;1.30;;;8.70;99.90;;;;;;5014645;28;20185;-69
2022/05/29 13:01:59;;;;;;;3.50;1.53;;;8.70;99.90;;;;;;5058392;28;20179;-69
2022/05/29 13:04:58;;;;;;;1.33;1.23;;;8.70;99.90;;;;;;5072424;28;20212;-69
2022/05/29 13:07:33;;;;;;;2.33;1.50;;;8.80;99.90;;;;;;5070773;28;20669;-69
2022/05/29 13:10:16;;;;;;;3.30;1.60;;;8.80;99.90;;;;;;5073136;28;20254;-70
2022/05/29 13:13:00;;;;;;;1.93;1.30;;;8.70;99.90;;;;;;5071650;28;20190;-70
2022/05/29 13:15:34;;;;;;;3.37;1.77;;;8.50;99.90;;;;;;5072455;28;20184;-69
2022/05/29 13:18:27;;;;;;;3.13;1.50;;;8.50;99.90;;;;;;5072824;28;20644;-70
2022/05/29 13:21:17;;;;;;;5.70;1.60;;;8.40;99.90;;;;;;5073441;28;20252;-67
2022/05/29 13:23:52;;;;;;;2.17;1.43;;;8.40;99.90;;;;;;5073086;28;20199;-69
2022/05/29 13:26:24;;;;;;;4.73;1.80;;;8.40;99.90;;;;;;5072038;28;20183;-69
2022/05/29 13:28:54;;;;;;;3.90;2.00;;;8.30;99.90;;;;;;5070972;28;20270;-69
2022/05/29 13:31:22;;;;;;;3.47;1.87;;;8.20;99.90;;;;;;5072959;28;20179;-69
2022/05/29 13:33:59;;;;;;;3.03;1.90;;;8.10;99.90;;;;;;5072804;28;20653;-69
2022/05/29 13:36:53;;;;;;;3.10;2.00;;;8.00;99.90;;;;;;5072258;28;20557;-70
2022/05/29 13:39:30;;;;;;;2.17;1.90;;;7.80;99.90;;;;;;5070535;28;20195;-70
2022/05/29 13:42:00;;;;;;;7.13;2.63;;;7.70;99.90;;;;;;5072503;28;20676;-70
2022/05/29 13:44:42;;;;;;;4.50;2.40;;;7.80;99.90;;;;;;5072801;28;20196;-70
2022/05/29 13:47:25;;;;;;;4.90;2.40;;;7.80;99.90;;;;;;5052984;28;20180;-70
2022/05/29 13:50:04;;;;;;;3.50;2.77;;;7.80;99.90;;;;;;5063904;28;20206;-70
2022/05/29 13:52:44;;;;;;;4.83;3.17;;;7.80;99.90;;;;;;5073083;28;20542;-70
2022/05/29 13:55:30;;;;;;;5.00;3.33;;;8.00;99.90;;;;;;5072093;28;20173;-70
2022/05/29 14:04:06;;;;;;;6.67;5.07;;;8.10;99.90;;;;;;5072246;28;20708;-70
2022/05/29 14:06:40;;;;;;;7.20;4.57;;;8.00;99.90;;;;;;5071755;28;20178;-69
2022/05/29 14:09:13;;;;;;;9.40;4.70;;;8.00;99.90;;;;;;5071963;28;20188;-70
2022/05/29 14:12:00;;;;;;;6.60;4.93;;;7.80;99.90;;;;;;5072343;28;20184;-69